createdAt,value
2019-05-07T00:01:12.283Z,99313.42
2019-05-07T00:03:42.766Z,99317.86
2019-05-07T00:06:13.490Z,99321.05
2019-05-07T00:08:44.994Z,99324.39
2019-05-07T00:11:15.838Z,99317.63
2019-05-07T00:13:46.531Z,99326.75
2019-05-07T00:16:17.131Z,99327.28
2019-05-07T00:18:47.615Z,99332.88
2019-05-07T00:21:18.009Z,99330.30
2019-05-07T00:23:48.634Z,99340.74
2019-05-07T00:26:19.088Z,99331.91
2019-05-07T00:28:49.610Z,99334.60
2019-05-07T00:31:23.275Z,99340.25
2019-05-07T00:33:53.333Z,99327.16
2019-05-07T00:36:33.473Z,99324.53
2019-05-07T00:39:16.182Z,99329.77
2019-05-07T00:41:53.091Z,99333.06
2019-05-07T00:44:23.794Z,99326.70
2019-05-07T00:46:54.251Z,99320.22
2019-05-07T00:49:26.597Z,99318.84
2019-05-07T00:51:57.198Z,99305.52
2019-05-07T00:54:28.406Z,99311.56
2019-05-07T00:56:58.881Z,99313.67
2019-05-07T00:59:29.507Z,99326.98
2019-05-07T01:02:02.241Z,99330.10
2019-05-07T01:04:33.242Z,99341.48
2019-05-07T01:07:03.701Z,99345.00
2019-05-07T01:09:34.511Z,99346.07
2019-05-07T01:12:05.149Z,99349.53
2019-05-07T01:14:35.821Z,99347.67
2019-05-07T01:17:06.251Z,99357.95
2019-05-07T01:19:36.950Z,99352.34
2019-05-07T01:22:07.606Z,99344.86
2019-05-07T01:24:38.081Z,99336.59
2019-05-07T01:27:08.761Z,99331.28
2019-05-07T01:29:39.195Z,99343.05
2019-05-07T01:32:27.851Z,99337.07
2019-05-07T01:35:05.901Z,99325.63
2019-05-07T01:37:36.263Z,99325.07
2019-05-07T01:40:07.150Z,99332.78
2019-05-07T01:42:37.546Z,99323.39
2019-05-07T01:45:09.622Z,99322.30
2019-05-07T01:47:42.327Z,99323.05
2019-05-07T01:50:13.359Z,99328.05
2019-05-07T01:52:43.913Z,99322.53
2019-05-07T01:55:14.419Z,99336.98
2019-05-07T01:57:44.821Z,99328.89
2019-05-07T02:00:15.736Z,99329.66
2019-05-07T02:02:58.371Z,99336.30
2019-05-07T02:05:56.954Z,99320.22
2019-05-07T02:09:04.455Z,99339.89
2019-05-07T02:11:39.544Z,99352.45
2019-05-07T02:14:09.635Z,99365.75
2019-05-07T02:16:41.866Z,99360.80
2019-05-07T02:19:12.795Z,99370.55
2019-05-07T02:21:43.383Z,99380.59
2019-05-07T02:24:13.806Z,99396.98
2019-05-07T02:26:44.382Z,99407.90
2019-05-07T02:29:15.403Z,99418.33
2019-05-07T02:31:45.727Z,99421.78
2019-05-07T02:34:16.118Z,99421.81
2019-05-07T02:36:46.535Z,99413.30
2019-05-07T02:39:26.898Z,99423.08
2019-05-07T02:41:57.239Z,99432.09
2019-05-07T02:44:27.960Z,99429.54
2019-05-07T02:47:13.017Z,99428.73
2019-05-07T02:49:53.682Z,99433.25
2019-05-07T02:52:43.791Z,99438.78
2019-05-07T02:55:25.712Z,99435.36
2019-05-07T02:57:56.212Z,99447.52
2019-05-07T03:00:26.713Z,99451.83
2019-05-07T03:02:57.521Z,99452.87
2019-05-07T03:05:28.156Z,99436.37
2019-05-07T03:07:58.549Z,99433.56
2019-05-07T03:10:29.207Z,99421.99
2019-05-07T03:13:02.706Z,99417.50
2019-05-07T03:15:33.184Z,99411.37
2019-05-07T03:18:04.619Z,99390.28
2019-05-07T03:20:47.877Z,99385.08
2019-05-07T03:23:22.848Z,99392.81
2019-05-07T03:26:28.131Z,99389.38
2019-05-07T03:29:03.680Z,99396.73
2019-05-07T03:31:56.219Z,99395.34
2019-05-07T03:34:48.923Z,99395.34
2019-05-07T03:37:23.477Z,99399.37
2019-05-07T03:39:54.356Z,99409.80
2019-05-07T03:42:25.260Z,99425.80
2019-05-07T03:45:03.841Z,99426.38
2019-05-07T03:47:45.872Z,99423.87
2019-05-07T03:50:16.734Z,99418.19
2019-05-07T03:52:47.527Z,99417.69
2019-05-07T03:55:18.136Z,99410.48
2019-05-07T03:57:48.710Z,99418.65
2019-05-07T04:00:19.448Z,99405.34
2019-05-07T04:02:52.484Z,99412.84
2019-05-07T04:05:23.189Z,99408.51
2019-05-07T04:07:54.161Z,99412.94
2019-05-07T04:10:24.578Z,99420.83
2019-05-07T04:12:55.162Z,99417.04
2019-05-07T04:15:25.943Z,99427.94
2019-05-07T04:17:57.164Z,99431.77
2019-05-07T04:20:27.732Z,99433.67
2019-05-07T04:22:58.698Z,99433.66
2019-05-07T04:25:45.480Z,99438.90
2019-05-07T04:28:33.032Z,99433.37
2019-05-07T04:31:03.162Z,99430.95
2019-05-07T04:33:43.648Z,99424.36
2019-05-07T04:36:34.450Z,99431.21
2019-05-07T04:39:06.038Z,99432.06
2019-05-07T04:41:36.607Z,99451.03
2019-05-07T04:44:07.143Z,99432.77
2019-05-07T04:46:37.647Z,99458.37
2019-05-07T04:49:08.216Z,99457.44
2019-05-07T04:52:04.178Z,99458.42
2019-05-07T04:54:34.768Z,99473.38
2019-05-07T04:57:09.006Z,99466.97
2019-05-07T04:59:42.550Z,99459.45
2019-05-07T05:02:16.811Z,99474.14
2019-05-07T05:04:47.324Z,99474.06
2019-05-07T05:07:19.067Z,99476.09
2019-05-07T05:09:49.530Z,99478.45
2019-05-07T05:12:22.455Z,99491.11
2019-05-07T05:14:52.505Z,99480.20
2019-05-07T05:17:22.934Z,99482.69
2019-05-07T05:19:53.547Z,99475.11
2019-05-07T05:22:42.457Z,99477.72
2019-05-07T05:25:29.714Z,99476.58
2019-05-07T05:28:02.058Z,99469.52
2019-05-07T05:30:44.515Z,99476.89
2019-05-07T05:33:15.019Z,99479.26
2019-05-07T05:35:45.319Z,99482.59
2019-05-07T05:38:15.853Z,99474.73
2019-05-07T05:40:46.405Z,99490.49
2019-05-07T05:43:29.170Z,99496.83
2019-05-07T05:46:02.756Z,99500.05
2019-05-07T05:48:33.565Z,99488.25
2019-05-07T05:51:35.288Z,99496.73
2019-05-07T05:54:37.247Z,99488.08
2019-05-07T05:57:36.061Z,99493.36
2019-05-07T06:00:27.581Z,99503.46
2019-05-07T06:03:23.497Z,99507.06
2019-05-07T06:06:19.171Z,99509.80
2019-05-07T06:08:59.082Z,99498.16
2019-05-07T06:11:46.843Z,99507.47
2019-05-07T06:14:33.031Z,99499.56
2019-05-07T06:17:19.470Z,99499.33
2019-05-07T06:19:56.567Z,99489.09
2019-05-07T06:22:52.930Z,99493.95
2019-05-07T06:25:24.956Z,99511.75
2019-05-07T06:27:55.876Z,99514.89
2019-05-07T06:30:26.301Z,99525.48
2019-05-07T06:32:56.817Z,99502.37
2019-05-07T06:35:27.249Z,99535.09
2019-05-07T06:37:57.756Z,99528.39
2019-05-07T06:40:51.961Z,99524.55
2019-05-07T06:43:33.904Z,99526.63
2019-05-07T06:46:05.102Z,99525.23
2019-05-07T06:48:42.329Z,99512.13
2019-05-07T06:51:08.179Z,99523.53
2019-05-07T06:53:38.690Z,99521.80
2019-05-07T06:56:09.144Z,99529.80
2019-05-07T06:58:45.084Z,99515.95
2019-05-07T07:01:23.425Z,99519.19
2019-05-07T07:04:07.764Z,99526.75
2019-05-07T07:07:26.668Z,99527.23
2019-05-07T07:10:02.724Z,99527.27
2019-05-07T07:12:33.412Z,99526.20
2019-05-07T07:15:04.469Z,99534.05
2019-05-07T07:17:35.127Z,99526.45
2019-05-07T07:20:06.215Z,99517.84
2019-05-07T07:22:36.808Z,99529.34
2019-05-07T07:25:08.945Z,99541.55
2019-05-07T07:27:39.678Z,99538.41
2019-05-07T07:30:29.402Z,99546.61
2019-05-07T07:33:02.841Z,99533.45
2019-05-07T07:35:33.389Z,99551.04
2019-05-07T07:38:22.887Z,99551.84
2019-05-07T07:41:05.398Z,99553.72
2019-05-07T07:43:36.097Z,99553.48
2019-05-07T07:46:06.597Z,99555.77
2019-05-07T07:48:37.567Z,99557.09
2019-05-07T07:51:07.968Z,99552.91
2019-05-07T07:53:38.666Z,99549.30
2019-05-07T07:56:51.825Z,99570.34
2019-05-07T07:59:42.107Z,99556.72
2019-05-07T08:02:32.212Z,99558.80
2019-05-07T08:05:04.722Z,99560.85
2019-05-07T08:07:35.618Z,99569.89
2019-05-07T08:10:07.645Z,99580.42
2019-05-07T08:12:38.225Z,99571.41
2019-05-07T08:15:16.647Z,99579.69
2019-05-07T08:17:42.713Z,99577.76
2019-05-07T08:20:14.232Z,99577.52
2019-05-07T08:22:44.666Z,99583.45
2019-05-07T08:25:15.472Z,99586.92
2019-05-07T08:27:46.095Z,99583.60
2019-05-07T08:30:22.243Z,99588.02
2019-05-07T08:33:09.665Z,99581.74
2019-05-07T08:35:45.328Z,99592.46
2019-05-07T08:38:15.869Z,99582.11
2019-05-07T08:40:46.349Z,99599.39
2019-05-07T08:43:16.737Z,99602.29
2019-05-07T08:46:18.373Z,99601.41
2019-05-07T08:48:50.242Z,99601.04
2019-05-07T08:51:22.361Z,99607.81
2019-05-07T08:54:05.852Z,99610.80
2019-05-07T08:56:37.888Z,99601.55
2019-05-07T08:59:08.953Z,99601.23
2019-05-07T09:01:43.253Z,99594.59
2019-05-07T09:04:13.929Z,99598.86
2019-05-07T09:06:44.365Z,99614.83
2019-05-07T09:09:16.656Z,99610.56
2019-05-07T09:11:48.046Z,99606.23
2019-05-07T09:14:18.481Z,99607.91
2019-05-07T09:16:49.218Z,99597.11
2019-05-07T09:19:21.568Z,99607.70
2019-05-07T09:21:52.913Z,99607.19
2019-05-07T09:24:23.626Z,99593.84
2019-05-07T09:27:09.171Z,99601.59
2019-05-07T09:29:52.782Z,99595.09
2019-05-07T09:32:32.696Z,99609.39
2019-05-07T09:35:03.676Z,99635.69
2019-05-07T09:37:34.205Z,99620.05
2019-05-07T09:40:04.813Z,99623.14
2019-05-07T09:42:35.752Z,99623.16
2019-05-07T09:45:07.683Z,99627.50
2019-05-07T09:47:38.371Z,99645.39
2019-05-07T09:50:09.075Z,99640.69
2019-05-07T09:52:39.864Z,99640.23
2019-05-07T09:55:16.585Z,99626.70
2019-05-07T09:57:44.045Z,99639.28
2019-05-07T10:00:15.167Z,99644.94
2019-05-07T10:02:45.816Z,99636.26
2019-05-07T10:05:16.783Z,99644.69
2019-05-07T10:07:47.402Z,99650.03
2019-05-07T10:10:18.182Z,99646.39
2019-05-07T10:12:58.174Z,99646.10
2019-05-07T10:15:28.779Z,99651.11
2019-05-07T10:18:12.921Z,99665.80
2019-05-07T10:20:43.562Z,99660.33
2019-05-07T10:23:22.977Z,99648.44
2019-05-07T10:25:54.030Z,99666.31
2019-05-07T10:28:24.629Z,99662.01
2019-05-07T10:30:56.078Z,99661.74
2019-05-07T10:33:26.609Z,99678.50
2019-05-07T10:35:57.150Z,99672.15
2019-05-07T10:38:27.857Z,99671.05
2019-05-07T10:40:58.587Z,99676.19
2019-05-07T10:43:29.342Z,99671.44
2019-05-07T10:46:22.110Z,99675.06
2019-05-07T10:49:17.438Z,99681.45
2019-05-07T10:51:47.896Z,99683.70
2019-05-07T10:54:18.876Z,99691.44
2019-05-07T10:56:49.635Z,99694.18
2019-05-07T10:59:22.526Z,99695.35
2019-05-07T11:02:07.030Z,99697.50
2019-05-07T11:08:18.482Z,99700.72
2019-05-07T11:17:28.162Z,99712.83
2019-05-07T11:20:49.303Z,99718.84
2019-05-07T11:37:02.130Z,99732.85
2019-05-07T11:39:33.209Z,99724.78
2019-05-07T11:45:37.296Z,99737.71
2019-05-07T11:48:08.147Z,99728.93
2019-05-07T11:50:45.642Z,99754.93
2019-05-07T11:53:17.865Z,99748.75
2019-05-07T11:55:48.368Z,99753.28
2019-05-07T11:58:19.368Z,99754.75
2019-05-07T12:00:58.701Z,99765.11
2019-05-07T12:03:29.411Z,99753.95
2019-05-07T12:06:02.106Z,99765.22
2019-05-07T12:08:42.885Z,99762.13
2019-05-07T12:11:05.560Z,99765.53
2019-05-07T12:13:36.453Z,99764.73
2019-05-07T12:16:07.450Z,99766.84
2019-05-07T12:18:38.449Z,99779.00
2019-05-07T12:21:18.320Z,99772.45
2019-05-07T12:23:42.226Z,99779.27
2019-05-07T12:26:12.998Z,99783.06
2019-05-07T12:28:43.942Z,99781.29
2019-05-07T12:31:36.952Z,99779.02
2019-05-07T12:34:11.883Z,99777.89
2019-05-07T12:36:42.673Z,99777.75
2019-05-07T12:39:14.572Z,99780.94
2019-05-07T12:41:45.440Z,99775.74
2019-05-07T12:44:16.107Z,99778.13
2019-05-07T12:46:46.671Z,99782.73
2019-05-07T12:49:17.260Z,99775.09
2019-05-07T12:52:05.946Z,99783.60
2019-05-07T12:54:45.787Z,99784.21
2019-05-07T12:57:16.706Z,99798.07
2019-05-07T12:59:49.634Z,99791.45
2019-05-07T13:02:48.891Z,99798.89
2019-05-07T13:05:20.053Z,99799.56
2019-05-07T13:07:55.189Z,99804.81
2019-05-07T13:10:25.910Z,99801.75
2019-05-07T13:12:56.829Z,99791.50
2019-05-07T13:15:28.438Z,99793.92
2019-05-07T13:17:59.256Z,99786.77
2019-05-07T13:20:31.996Z,99791.70
2019-05-07T13:23:03.629Z,99795.34
2019-05-07T13:25:34.329Z,99799.57
2019-05-07T13:28:06.696Z,99799.20
2019-05-07T13:30:37.637Z,99787.77
2019-05-07T13:33:08.412Z,99789.38
2019-05-07T13:35:39.537Z,99789.56
2019-05-07T13:38:27.616Z,99793.33
2019-05-07T13:41:05.308Z,99801.28
2019-05-07T13:43:41.200Z,99791.63
2019-05-07T13:46:14.086Z,99793.08
2019-05-07T13:49:40.112Z,99791.90
2019-05-07T13:52:11.800Z,99794.80
2019-05-07T13:55:18.312Z,99795.86
2019-05-07T14:01:43.766Z,99796.41
2019-05-07T14:04:35.691Z,99787.98
2019-05-07T14:07:23.645Z,99791.12
2019-05-07T14:10:09.676Z,99797.48
2019-05-07T14:13:24.324Z,99805.64
2019-05-07T14:16:15.019Z,99804.23
2019-05-07T14:18:45.801Z,99807.38
2019-05-07T14:32:12.801Z,99830.66
2019-05-07T14:35:02.161Z,99828.52
2019-05-07T14:37:38.934Z,99832.95
2019-05-07T14:40:10.062Z,99832.75
2019-05-07T14:42:45.623Z,99846.14
2019-05-07T14:45:18.343Z,99829.59
2019-05-07T14:47:49.296Z,99840.30
2019-05-07T14:50:19.929Z,99839.38
2019-05-07T14:59:59.707Z,99836.06
2019-05-07T15:03:12.430Z,99821.52
2019-05-07T15:05:43.230Z,99828.61
2019-05-07T15:22:18.493Z,99845.76
2019-05-07T15:24:49.131Z,99840.36
2019-05-07T15:28:23.177Z,99841.61
2019-05-07T15:31:05.722Z,99837.20
2019-05-07T15:33:36.141Z,99845.89
2019-05-07T15:36:06.904Z,99850.06
2019-05-07T15:38:37.617Z,99852.41
2019-05-07T15:41:08.166Z,99843.22
2019-05-07T15:43:38.660Z,99857.91
2019-05-07T15:46:09.425Z,99852.94
2019-05-07T15:48:41.888Z,99860.95
2019-05-07T15:51:12.865Z,99864.05
2019-05-07T16:05:47.588Z,99877.13
2019-05-07T16:08:18.814Z,99875.39
2019-05-07T16:10:49.213Z,99882.56
2019-05-07T16:13:24.639Z,99879.03
2019-05-07T16:15:55.139Z,99888.33
2019-05-07T16:18:32.680Z,99890.31
2019-05-07T16:21:05.012Z,99891.84
2019-05-07T16:23:35.679Z,99896.38
2019-05-07T16:26:06.233Z,99897.66
2019-05-07T16:28:36.834Z,99903.67
2019-05-07T16:31:07.456Z,99905.23
2019-05-07T16:33:38.048Z,99908.28
2019-05-07T16:36:09.655Z,99913.72
2019-05-07T16:38:41.843Z,99921.33
2019-05-07T16:41:13.574Z,99913.75
2019-05-07T16:43:46.164Z,99918.16
2019-05-07T16:46:16.994Z,99918.83
2019-05-07T16:48:48.645Z,99922.36
2019-05-07T16:51:19.133Z,99925.45
2019-05-07T16:53:49.494Z,99926.50
2019-05-07T16:56:20.113Z,99925.45
2019-05-07T16:58:56.117Z,99931.93
2019-05-07T17:01:27.420Z,99930.61
2019-05-07T17:04:02.595Z,99940.66
2019-05-07T17:06:35.642Z,99942.67
2019-05-07T17:09:13.621Z,99944.59
2019-05-07T17:11:45.441Z,99944.50
2019-05-07T17:14:16.983Z,99939.56
2019-05-07T17:16:51.583Z,99939.09
2019-05-07T17:19:22.517Z,99942.30
2019-05-07T17:21:53.057Z,99937.75
2019-05-07T17:24:26.739Z,99948.37
2019-05-07T17:26:59.044Z,99946.36
2019-05-07T17:29:32.136Z,99953.27
2019-05-07T17:32:06.670Z,99955.39
2019-05-07T17:34:37.370Z,99954.92
2019-05-07T17:37:12.661Z,99952.58
2019-05-07T17:39:43.315Z,99962.77
2019-05-07T17:42:17.643Z,99958.98
2019-05-07T17:44:48.152Z,99961.70
2019-05-07T17:47:21.816Z,99957.69
2019-05-07T17:49:52.908Z,99970.87
2019-05-07T17:52:24.760Z,99976.47
2019-05-07T17:54:55.415Z,99973.25
2019-05-07T17:57:25.883Z,99978.47
2019-05-07T17:59:57.613Z,99986.11
2019-05-07T18:02:38.908Z,99981.56
2019-05-07T18:05:11.887Z,99983.97
2019-05-07T18:07:42.478Z,99994.77
2019-05-07T18:10:13.994Z,99992.75
2019-05-07T18:12:45.566Z,99987.88
2019-05-07T18:15:16.244Z,99990.25
2019-05-07T18:17:57.184Z,99987.74
2019-05-07T18:20:29.208Z,99984.42
2019-05-07T18:23:02.638Z,99993.44
2019-05-07T18:25:38.982Z,100004.72
2019-05-07T18:28:12.269Z,100000.45
2019-05-07T18:30:49.497Z,100008.55
2019-05-07T18:33:37.896Z,100014.73
2019-05-07T18:36:08.612Z,100013.91
2019-05-07T18:38:39.462Z,100002.95
2019-05-07T18:41:12.136Z,100017.70
2019-05-07T18:43:43.612Z,100007.09
2019-05-07T18:46:17.190Z,100017.08
2019-05-07T18:48:47.992Z,100016.35
2019-05-07T18:51:20.684Z,100012.20
2019-05-07T18:53:54.941Z,100008.62
2019-05-07T18:56:42.022Z,100002.00
2019-05-07T18:59:07.620Z,100007.81
2019-05-07T19:01:42.139Z,100001.38
2019-05-07T19:04:13.150Z,100009.45
2019-05-07T19:06:43.635Z,100006.02
2019-05-07T19:09:14.184Z,100012.44
2019-05-07T19:11:45.735Z,100010.17
2019-05-07T19:14:16.358Z,100010.98
2019-05-07T19:16:47.003Z,100003.64
2019-05-07T19:19:18.609Z,100015.26
2019-05-07T19:21:49.184Z,100011.11
2019-05-07T19:24:21.944Z,100015.05
2019-05-07T19:26:52.875Z,100019.55
2019-05-07T19:29:25.225Z,100021.45
2019-05-07T19:31:55.599Z,100011.34
2019-05-07T19:34:26.019Z,100024.06
2019-05-07T19:36:56.495Z,100013.82
2019-05-07T19:39:29.473Z,100019.13
2019-05-07T19:41:59.924Z,100015.73
2019-05-07T19:44:38.387Z,100010.50
2019-05-07T19:47:09.109Z,100010.06
2019-05-07T19:49:41.822Z,100013.84
2019-05-07T19:52:12.587Z,100008.39
2019-05-07T19:54:57.693Z,100011.00
2019-05-07T19:57:23.001Z,100019.41
2019-05-07T19:59:52.684Z,100017.06
2019-05-07T20:02:27.116Z,100028.36
2019-05-07T20:04:58.984Z,100032.51
2019-05-07T20:07:29.448Z,100039.34
2019-05-07T20:10:02.529Z,100038.73
2019-05-07T20:12:32.778Z,100047.78
2019-05-07T20:15:03.370Z,100043.41
2019-05-07T20:17:34.627Z,100047.81
2019-05-07T20:20:05.227Z,100050.55
2019-05-07T20:22:35.551Z,100054.70
2019-05-07T20:25:18.132Z,100056.38
2019-05-07T20:27:38.482Z,100052.08
2019-05-07T20:30:12.215Z,100061.58
2019-05-07T20:32:43.959Z,100058.85
2019-05-07T20:35:14.631Z,100071.30
2019-05-07T20:37:45.348Z,100078.56
2019-05-07T20:40:17.337Z,100069.30
2019-05-07T20:42:47.930Z,100069.42
2019-05-07T20:45:18.871Z,100079.75
2019-05-07T20:47:49.332Z,100084.17
2019-05-07T20:50:22.160Z,100086.17
2019-05-07T20:52:52.471Z,100083.83
2019-05-07T20:55:43.879Z,100098.33
2019-05-07T20:58:15.563Z,100097.90
